sensor_id;sensor_type;location;lat;lon;timestamp;P1;durP1;ratioP1;P2;durP2;ratioP2
74707;SDS011;63360;50.104;8.074;2024-01-15T00:00:58;18.05;;;4.47;;
74707;SDS011;63360;50.104;8.074;2024-01-15T00:03:24;12.93;;;3.33;;
74707;SDS011;63360;50.104;8.074;2024-01-15T00:05:51;13.90;;;3.67;;
74707;SDS011;63360;50.104;8.074;2024-01-15T00:08:17;13.27;;;4.10;;
74707;SDS011;63360;50.104;8.074;2024-01-15T00:10:43;14.63;;;3.90;;
74707;SDS011;63360;50.104;8.074;2024-01-15T00:13:10;14.80;;;4.28;;
74707;SDS011;63360;50.104;8.074;2024-01-15T00:15:36;15.13;;;3.60;;
74707;SDS011;63360;50.104;8.074;2024-01-15T00:18:03;14.88;;;3.75;;
74707;SDS011;63360;50.104;8.074;2024-01-15T00:20:29;14.90;;;4.30;;
74707;SDS011;63360;50.104;8.074;2024-01-15T00:22:56;12.70;;;3.83;;
74707;SDS011;63360;50.104;8.074;2024-01-15T00:25:22;13.80;;;4.55;;
74707;SDS011;63360;50.104;8.074;2024-01-15T00:27:49;16.58;;;4.15;;
74707;SDS011;63360;50.104;8.074;2024-01-15T00:30:16;15.93;;;4.63;;
74707;SDS011;63360;50.104;8.074;2024-01-15T00:32:42;17.13;;;4.40;;
74707;SDS011;63360;50.104;8.074;2024-01-15T00:35:09;15.60;;;4.72;;
74707;SDS011;63360;50.104;8.074;2024-01-15T00:37:35;14.55;;;4.53;;
74707;SDS011;63360;50.104;8.074;2024-01-15T00:40:02;16.88;;;4.65;;
74707;SDS011;63360;50.104;8.074;2024-01-15T00:42:28;16.27;;;4.50;;
74707;SDS011;63360;50.104;8.074;2024-01-15T00:44:55;17.77;;;4.63;;
74707;SDS011;63360;50.104;8.074;2024-01-15T00:47:21;17.10;;;3.90;;
74707;SDS011;63360;50.104;8.074;2024-01-15T00:49:47;13.68;;;4.53;;
74707;SDS011;63360;50.104;8.074;2024-01-15T00:52:14;13.02;;;4.22;;
74707;SDS011;63360;50.104;8.074;2024-01-15T00:54:40;15.75;;;4.05;;
74707;SDS011;63360;50.104;8.074;2024-01-15T00:57:07;16.47;;;4.30;;
74707;SDS011;63360;50.104;8.074;2024-01-15T00:59:33;16.33;;;3.88;;
74707;SDS011;63360;50.104;8.074;2024-01-15T01:02:00;17.80;;;4.93;;
74707;SDS011;63360;50.104;8.074;2024-01-15T01:04:26;19.10;;;5.00;;
74707;SDS011;63360;50.104;8.074;2024-01-15T01:06:53;18.63;;;4.68;;
74707;SDS011;63360;50.104;8.074;2024-01-15T01:09:19;15.47;;;4.27;;
74707;SDS011;63360;50.104;8.074;2024-01-15T01:11:45;17.52;;;4.53;;
74707;SDS011;63360;50.104;8.074;2024-01-15T01:14:12;18.80;;;4.93;;
74707;SDS011;63360;50.104;8.074;2024-01-15T01:16:38;16.55;;;4.65;;
74707;SDS011;63360;50.104;8.074;2024-01-15T01:19:05;19.65;;;5.00;;
74707;SDS011;63360;50.104;8.074;2024-01-15T01:21:33;16.83;;;4.50;;
74707;SDS011;63360;50.104;8.074;2024-01-15T01:24:00;17.05;;;4.45;;
74707;SDS011;63360;50.104;8.074;2024-01-15T01:26:26;17.05;;;4.75;;
74707;SDS011;63360;50.104;8.074;2024-01-15T01:28:52;18.23;;;4.60;;
74707;SDS011;63360;50.104;8.074;2024-01-15T01:31:19;17.42;;;4.65;;
74707;SDS011;63360;50.104;8.074;2024-01-15T01:33:45;16.37;;;4.17;;
74707;SDS011;63360;50.104;8.074;2024-01-15T01:36:12;14.30;;;4.10;;
74707;SDS011;63360;50.104;8.074;2024-01-15T01:38:39;14.82;;;4.30;;
74707;SDS011;63360;50.104;8.074;2024-01-15T01:41:06;15.43;;;4.10;;
74707;SDS011;63360;50.104;8.074;2024-01-15T01:43:33;19.80;;;4.60;;
74707;SDS011;63360;50.104;8.074;2024-01-15T01:46:00;13.37;;;3.90;;
74707;SDS011;63360;50.104;8.074;2024-01-15T01:48:27;17.27;;;3.95;;
74707;SDS011;63360;50.104;8.074;2024-01-15T01:50:54;20.70;;;4.82;;
74707;SDS011;63360;50.104;8.074;2024-01-15T01:53:25;13.80;;;4.72;;
74707;SDS011;63360;50.104;8.074;2024-01-15T01:55:53;17.80;;;4.93;;
74707;SDS011;63360;50.104;8.074;2024-01-15T01:58:22;14.63;;;4.40;;
74707;SDS011;63360;50.104;8.074;2024-01-15T02:00:48;17.02;;;3.78;;
74707;SDS011;63360;50.104;8.074;2024-01-15T02:03:16;15.82;;;4.32;;
74707;SDS011;63360;50.104;8.074;2024-01-15T02:05:43;17.25;;;4.32;;
74707;SDS011;63360;50.104;8.074;2024-01-15T02:08:10;15.40;;;4.68;;
74707;SDS011;63360;50.104;8.074;2024-01-15T02:10:37;17.80;;;4.40;;
74707;SDS011;63360;50.104;8.074;2024-01-15T02:13:03;15.07;;;4.55;;
74707;SDS011;63360;50.104;8.074;2024-01-15T02:15:30;15.07;;;4.25;;
74707;SDS011;63360;50.104;8.074;2024-01-15T02:20:24;15.73;;;4.38;;
74707;SDS011;63360;50.104;8.074;2024-01-15T02:22:51;16.50;;;4.10;;
74707;SDS011;63360;50.104;8.074;2024-01-15T02:25:18;16.23;;;4.30;;
74707;SDS011;63360;50.104;8.074;2024-01-15T02:27:45;14.85;;;4.43;;
74707;SDS011;63360;50.104;8.074;2024-01-15T02:30:12;17.85;;;4.35;;
74707;SDS011;63360;50.104;8.074;2024-01-15T02:32:39;18.00;;;4.22;;
74707;SDS011;63360;50.104;8.074;2024-01-15T02:35:05;16.40;;;4.17;;
74707;SDS011;63360;50.104;8.074;2024-01-15T02:37:32;15.90;;;4.53;;
74707;SDS011;63360;50.104;8.074;2024-01-15T02:39:58;16.63;;;4.82;;
74707;SDS011;63360;50.104;8.074;2024-01-15T02:42:26;16.17;;;4.55;;
74707;SDS011;63360;50.104;8.074;2024-01-15T02:44:52;16.60;;;4.78;;
74707;SDS011;63360;50.104;8.074;2024-01-15T02:47:18;17.63;;;4.70;;
74707;SDS011;63360;50.104;8.074;2024-01-15T02:49:45;19.50;;;4.80;;
74707;SDS011;63360;50.104;8.074;2024-01-15T02:52:11;14.70;;;4.63;;
74707;SDS011;63360;50.104;8.074;2024-01-15T02:54:38;13.10;;;4.05;;
74707;SDS011;63360;50.104;8.074;2024-01-15T02:57:04;13.07;;;3.97;;
74707;SDS011;63360;50.104;8.074;2024-01-15T02:59:31;16.07;;;4.00;;
74707;SDS011;63360;50.104;8.074;2024-01-15T03:01:57;15.68;;;4.43;;
74707;SDS011;63360;50.104;8.074;2024-01-15T03:04:23;16.65;;;4.13;;
74707;SDS011;63360;50.104;8.074;2024-01-15T03:06:50;14.10;;;4.30;;
74707;SDS011;63360;50.104;8.074;2024-01-15T03:09:16;14.88;;;4.43;;
74707;SDS011;63360;50.104;8.074;2024-01-15T03:11:43;17.03;;;4.43;;
74707;SDS011;63360;50.104;8.074;2024-01-15T03:14:09;15.82;;;4.18;;
74707;SDS011;63360;50.104;8.074;2024-01-15T03:16:36;16.98;;;4.20;;
74707;SDS011;63360;50.104;8.074;2024-01-15T03:19:02;13.88;;;3.85;;
74707;SDS011;63360;50.104;8.074;2024-01-15T03:21:28;15.40;;;4.45;;
74707;SDS011;63360;50.104;8.074;2024-01-15T03:23:55;16.70;;;4.77;;
74707;SDS011;63360;50.104;8.074;2024-01-15T03:26:21;18.80;;;4.50;;
74707;SDS011;63360;50.104;8.074;2024-01-15T03:28:48;15.75;;;4.32;;
74707;SDS011;63360;50.104;8.074;2024-01-15T03:31:14;15.05;;;4.32;;
74707;SDS011;63360;50.104;8.074;2024-01-15T03:33:40;14.40;;;4.10;;
74707;SDS011;63360;50.104;8.074;2024-01-15T03:36:07;14.53;;;3.80;;
74707;SDS011;63360;50.104;8.074;2024-01-15T03:38:34;13.88;;;4.47;;
74707;SDS011;63360;50.104;8.074;2024-01-15T03:41:00;14.57;;;4.28;;
74707;SDS011;63360;50.104;8.074;2024-01-15T03:43:27;14.85;;;4.55;;
74707;SDS011;63360;50.104;8.074;2024-01-15T03:45:53;15.90;;;4.50;;
74707;SDS011;63360;50.104;8.074;2024-01-15T03:48:20;17.17;;;4.47;;
74707;SDS011;63360;50.104;8.074;2024-01-15T03:50:46;16.67;;;4.88;;
74707;SDS011;63360;50.104;8.074;2024-01-15T03:53:13;16.85;;;5.03;;
74707;SDS011;63360;50.104;8.074;2024-01-15T03:55:39;14.10;;;4.20;;
74707;SDS011;63360;50.104;8.074;2024-01-15T03:58:06;16.90;;;4.90;;
74707;SDS011;63360;50.104;8.074;2024-01-15T04:00:32;13.13;;;3.83;;
74707;SDS011;63360;50.104;8.074;2024-01-15T04:02:58;15.75;;;4.45;;
74707;SDS011;63360;50.104;8.074;2024-01-15T04:05:25;16.00;;;3.85;;
74707;SDS011;63360;50.104;8.074;2024-01-15T04:07:51;15.05;;;4.18;;
74707;SDS011;63360;50.104;8.074;2024-01-15T04:10:18;14.65;;;4.43;;
74707;SDS011;63360;50.104;8.074;2024-01-15T04:12:44;18.80;;;4.73;;
74707;SDS011;63360;50.104;8.074;2024-01-15T04:15:12;17.52;;;4.35;;
74707;SDS011;63360;50.104;8.074;2024-01-15T04:17:39;16.23;;;4.63;;
74707;SDS011;63360;50.104;8.074;2024-01-15T04:20:05;13.00;;;4.18;;
74707;SDS011;63360;50.104;8.074;2024-01-15T04:22:33;16.35;;;4.32;;
74707;SDS011;63360;50.104;8.074;2024-01-15T04:25:00;17.90;;;4.37;;
74707;SDS011;63360;50.104;8.074;2024-01-15T04:27:26;15.32;;;4.43;;
74707;SDS011;63360;50.104;8.074;2024-01-15T04:29:53;15.93;;;4.93;;
74707;SDS011;63360;50.104;8.074;2024-01-15T04:32:19;17.05;;;4.00;;
74707;SDS011;63360;50.104;8.074;2024-01-15T04:34:46;18.38;;;4.90;;
74707;SDS011;63360;50.104;8.074;2024-01-15T04:37:13;16.47;;;4.37;;
74707;SDS011;63360;50.104;8.074;2024-01-15T04:39:40;16.08;;;4.78;;
74707;SDS011;63360;50.104;8.074;2024-01-15T04:42:06;17.25;;;4.80;;
74707;SDS011;63360;50.104;8.074;2024-01-15T04:44:32;19.15;;;5.25;;
74707;SDS011;63360;50.104;8.074;2024-01-15T04:46:59;19.05;;;5.22;;
74707;SDS011;63360;50.104;8.074;2024-01-15T04:49:25;18.17;;;4.83;;
74707;SDS011;63360;50.104;8.074;2024-01-15T04:51:55;18.45;;;4.45;;
74707;SDS011;63360;50.104;8.074;2024-01-15T04:54:22;15.80;;;5.00;;
74707;SDS011;63360;50.104;8.074;2024-01-15T04:56:48;16.45;;;5.00;;
74707;SDS011;63360;50.104;8.074;2024-01-15T04:59:14;18.92;;;4.75;;
74707;SDS011;63360;50.104;8.074;2024-01-15T05:01:41;20.30;;;5.57;;
74707;SDS011;63360;50.104;8.074;2024-01-15T05:04:07;16.80;;;5.00;;
74707;SDS011;63360;50.104;8.074;2024-01-15T05:06:34;18.23;;;5.13;;
74707;SDS011;63360;50.104;8.074;2024-01-15T05:09:00;17.83;;;5.05;;
74707;SDS011;63360;50.104;8.074;2024-01-15T05:11:26;16.17;;;4.95;;
74707;SDS011;63360;50.104;8.074;2024-01-15T05:13:53;17.07;;;4.87;;
74707;SDS011;63360;50.104;8.074;2024-01-15T05:16:19;17.23;;;4.80;;
74707;SDS011;63360;50.104;8.074;2024-01-15T05:18:46;17.52;;;5.13;;
74707;SDS011;63360;50.104;8.074;2024-01-15T05:21:12;14.63;;;4.32;;
74707;SDS011;63360;50.104;8.074;2024-01-15T05:23:39;16.90;;;4.85;;
74707;SDS011;63360;50.104;8.074;2024-01-15T05:26:05;18.97;;;4.83;;
74707;SDS011;63360;50.104;8.074;2024-01-15T05:28:31;15.25;;;5.05;;
74707;SDS011;63360;50.104;8.074;2024-01-15T05:30:58;20.77;;;5.80;;
74707;SDS011;63360;50.104;8.074;2024-01-15T05:33:24;17.15;;;4.65;;
74707;SDS011;63360;50.104;8.074;2024-01-15T05:35:51;19.25;;;5.43;;
74707;SDS011;63360;50.104;8.074;2024-01-15T05:38:18;18.20;;;4.77;;
74707;SDS011;63360;50.104;8.074;2024-01-15T05:40:44;21.05;;;4.93;;
74707;SDS011;63360;50.104;8.074;2024-01-15T05:43:10;19.98;;;5.13;;
74707;SDS011;63360;50.104;8.074;2024-01-15T05:45:38;18.23;;;5.65;;
74707;SDS011;63360;50.104;8.074;2024-01-15T05:48:04;17.05;;;5.15;;
74707;SDS011;63360;50.104;8.074;2024-01-15T05:50:31;20.77;;;5.33;;
74707;SDS011;63360;50.104;8.074;2024-01-15T05:52:57;20.17;;;5.60;;
74707;SDS011;63360;50.104;8.074;2024-01-15T05:55:24;20.60;;;5.85;;
74707;SDS011;63360;50.104;8.074;2024-01-15T05:57:50;19.10;;;5.32;;
74707;SDS011;63360;50.104;8.074;2024-01-15T06:00:17;20.67;;;5.07;;
74707;SDS011;63360;50.104;8.074;2024-01-15T06:02:43;19.60;;;5.10;;
74707;SDS011;63360;50.104;8.074;2024-01-15T06:05:10;19.50;;;5.60;;
74707;SDS011;63360;50.104;8.074;2024-01-15T06:07:36;17.98;;;4.78;;
74707;SDS011;63360;50.104;8.074;2024-01-15T06:10:03;18.92;;;5.45;;
74707;SDS011;63360;50.104;8.074;2024-01-15T06:12:30;22.33;;;5.47;;
74707;SDS011;63360;50.104;8.074;2024-01-15T06:14:58;21.13;;;6.17;;
74707;SDS011;63360;50.104;8.074;2024-01-15T06:17:24;20.42;;;5.38;;
74707;SDS011;63360;50.104;8.074;2024-01-15T06:19:51;21.10;;;5.32;;
74707;SDS011;63360;50.104;8.074;2024-01-15T06:22:17;21.65;;;6.03;;
74707;SDS011;63360;50.104;8.074;2024-01-15T06:24:44;20.23;;;5.75;;
74707;SDS011;63360;50.104;8.074;2024-01-15T06:27:10;21.40;;;5.60;;
74707;SDS011;63360;50.104;8.074;2024-01-15T06:29:37;22.17;;;5.90;;
74707;SDS011;63360;50.104;8.074;2024-01-15T06:32:04;18.70;;;5.38;;
74707;SDS011;63360;50.104;8.074;2024-01-15T06:34:31;19.02;;;5.75;;
74707;SDS011;63360;50.104;8.074;2024-01-15T06:36:57;19.52;;;5.82;;
74707;SDS011;63360;50.104;8.074;2024-01-15T06:39:24;21.60;;;6.00;;
74707;SDS011;63360;50.104;8.074;2024-01-15T06:41:50;18.45;;;5.65;;
74707;SDS011;63360;50.104;8.074;2024-01-15T06:44:16;22.48;;;6.07;;
74707;SDS011;63360;50.104;8.074;2024-01-15T06:46:43;20.83;;;5.55;;
74707;SDS011;63360;50.104;8.074;2024-01-15T06:49:09;18.65;;;5.57;;
74707;SDS011;63360;50.104;8.074;2024-01-15T06:51:36;20.37;;;5.67;;
74707;SDS011;63360;50.104;8.074;2024-01-15T06:54:03;20.58;;;5.57;;
74707;SDS011;63360;50.104;8.074;2024-01-15T06:56:30;19.30;;;5.43;;
74707;SDS011;63360;50.104;8.074;2024-01-15T06:58:57;18.83;;;5.32;;
74707;SDS011;63360;50.104;8.074;2024-01-15T07:01:24;20.98;;;5.95;;
74707;SDS011;63360;50.104;8.074;2024-01-15T07:03:50;17.17;;;5.10;;
74707;SDS011;63360;50.104;8.074;2024-01-15T07:06:17;21.88;;;5.75;;
74707;SDS011;63360;50.104;8.074;2024-01-15T07:08:43;20.45;;;5.45;;
74707;SDS011;63360;50.104;8.074;2024-01-15T07:11:10;20.33;;;6.05;;
74707;SDS011;63360;50.104;8.074;2024-01-15T07:13:36;20.38;;;5.35;;
74707;SDS011;63360;50.104;8.074;2024-01-15T07:16:03;19.07;;;5.40;;
74707;SDS011;63360;50.104;8.074;2024-01-15T07:18:30;21.00;;;5.38;;
74707;SDS011;63360;50.104;8.074;2024-01-15T07:20:57;21.48;;;5.80;;
74707;SDS011;63360;50.104;8.074;2024-01-15T07:23:23;23.60;;;7.05;;
74707;SDS011;63360;50.104;8.074;2024-01-15T07:25:49;22.05;;;6.28;;
74707;SDS011;63360;50.104;8.074;2024-01-15T07:28:16;19.30;;;5.80;;
74707;SDS011;63360;50.104;8.074;2024-01-15T07:30:42;18.65;;;5.15;;
74707;SDS011;63360;50.104;8.074;2024-01-15T07:33:09;17.23;;;5.85;;
74707;SDS011;63360;50.104;8.074;2024-01-15T07:35:35;18.40;;;5.70;;
74707;SDS011;63360;50.104;8.074;2024-01-15T07:38:02;20.02;;;5.55;;
74707;SDS011;63360;50.104;8.074;2024-01-15T07:40:28;19.80;;;5.57;;
74707;SDS011;63360;50.104;8.074;2024-01-15T07:42:55;20.80;;;5.40;;
74707;SDS011;63360;50.104;8.074;2024-01-15T07:45:21;17.20;;;5.20;;
74707;SDS011;63360;50.104;8.074;2024-01-15T07:47:47;18.40;;;5.78;;
74707;SDS011;63360;50.104;8.074;2024-01-15T07:50:15;17.65;;;5.47;;
74707;SDS011;63360;50.104;8.074;2024-01-15T07:52:41;18.13;;;4.93;;
74707;SDS011;63360;50.104;8.074;2024-01-15T07:55:08;21.42;;;5.68;;
74707;SDS011;63360;50.104;8.074;2024-01-15T07:57:34;17.75;;;5.07;;
74707;SDS011;63360;50.104;8.074;2024-01-15T08:00:02;19.63;;;5.30;;
74707;SDS011;63360;50.104;8.074;2024-01-15T08:02:32;16.85;;;5.30;;
74707;SDS011;63360;50.104;8.074;2024-01-15T08:05:02;18.17;;;5.13;;
74707;SDS011;63360;50.104;8.074;2024-01-15T08:07:29;16.73;;;5.13;;
74707;SDS011;63360;50.104;8.074;2024-01-15T08:09:55;17.52;;;5.15;;
74707;SDS011;63360;50.104;8.074;2024-01-15T08:12:22;21.17;;;5.75;;
74707;SDS011;63360;50.104;8.074;2024-01-15T08:14:48;18.63;;;5.15;;
74707;SDS011;63360;50.104;8.074;2024-01-15T08:17:15;17.60;;;5.27;;
74707;SDS011;63360;50.104;8.074;2024-01-15T08:19:42;16.15;;;5.13;;
74707;SDS011;63360;50.104;8.074;2024-01-15T08:22:09;20.20;;;5.90;;
74707;SDS011;63360;50.104;8.074;2024-01-15T08:24:36;17.98;;;5.70;;
74707;SDS011;63360;50.104;8.074;2024-01-15T08:27:02;18.50;;;5.63;;
74707;SDS011;63360;50.104;8.074;2024-01-15T08:29:30;16.50;;;5.87;;
74707;SDS011;63360;50.104;8.074;2024-01-15T08:31:59;19.48;;;5.82;;
74707;SDS011;63360;50.104;8.074;2024-01-15T08:34:26;17.45;;;5.13;;
74707;SDS011;63360;50.104;8.074;2024-01-15T08:36:56;18.27;;;5.30;;
74707;SDS011;63360;50.104;8.074;2024-01-15T08:39:23;16.92;;;5.60;;
74707;SDS011;63360;50.104;8.074;2024-01-15T08:41:49;19.00;;;5.83;;
74707;SDS011;63360;50.104;8.074;2024-01-15T08:44:15;19.95;;;5.75;;
74707;SDS011;63360;50.104;8.074;2024-01-15T08:46:42;21.90;;;6.05;;
74707;SDS011;63360;50.104;8.074;2024-01-15T08:49:09;20.90;;;5.43;;
74707;SDS011;63360;50.104;8.074;2024-01-15T08:51:35;17.13;;;5.93;;
74707;SDS011;63360;50.104;8.074;2024-01-15T08:54:01;21.33;;;6.03;;
74707;SDS011;63360;50.104;8.074;2024-01-15T08:56:28;20.75;;;5.55;;
74707;SDS011;63360;50.104;8.074;2024-01-15T08:58:54;16.25;;;4.90;;
74707;SDS011;63360;50.104;8.074;2024-01-15T09:01:21;17.80;;;5.55;;
74707;SDS011;63360;50.104;8.074;2024-01-15T09:03:49;17.67;;;5.63;;
74707;SDS011;63360;50.104;8.074;2024-01-15T09:06:16;14.57;;;5.17;;
74707;SDS011;63360;50.104;8.074;2024-01-15T09:08:42;15.88;;;5.57;;
74707;SDS011;63360;50.104;8.074;2024-01-15T09:11:09;16.50;;;4.90;;
74707;SDS011;63360;50.104;8.074;2024-01-15T09:13:35;19.50;;;5.70;;
74707;SDS011;63360;50.104;8.074;2024-01-15T09:16:01;15.63;;;5.30;;
74707;SDS011;63360;50.104;8.074;2024-01-15T09:18:28;15.07;;;5.03;;
74707;SDS011;63360;50.104;8.074;2024-01-15T09:20:56;16.83;;;5.50;;
74707;SDS011;63360;50.104;8.074;2024-01-15T09:23:22;14.70;;;5.00;;
74707;SDS011;63360;50.104;8.074;2024-01-15T09:25:48;14.65;;;4.75;;
74707;SDS011;63360;50.104;8.074;2024-01-15T09:28:15;18.25;;;5.00;;
74707;SDS011;63360;50.104;8.074;2024-01-15T09:30:42;12.90;;;4.83;;
74707;SDS011;63360;50.104;8.074;2024-01-15T09:33:08;16.38;;;5.40;;
74707;SDS011;63360;50.104;8.074;2024-01-15T09:35:35;12.25;;;4.47;;
74707;SDS011;63360;50.104;8.074;2024-01-15T09:38:03;15.02;;;5.20;;
74707;SDS011;63360;50.104;8.074;2024-01-15T09:40:30;14.68;;;5.05;;
74707;SDS011;63360;50.104;8.074;2024-01-15T09:42:59;15.13;;;5.47;;
74707;SDS011;63360;50.104;8.074;2024-01-15T09:45:26;12.15;;;4.70;;
74707;SDS011;63360;50.104;8.074;2024-01-15T09:47:53;12.93;;;4.63;;
74707;SDS011;63360;50.104;8.074;2024-01-15T09:50:19;14.73;;;5.05;;
74707;SDS011;63360;50.104;8.074;2024-01-15T09:52:46;14.20;;;4.60;;
74707;SDS011;63360;50.104;8.074;2024-01-15T09:55:14;15.10;;;5.00;;
74707;SDS011;63360;50.104;8.074;2024-01-15T09:57:43;12.73;;;4.15;;
74707;SDS011;63360;50.104;8.074;2024-01-15T10:00:10;13.10;;;4.55;;
74707;SDS011;63360;50.104;8.074;2024-01-15T10:02:37;16.05;;;5.28;;
74707;SDS011;63360;50.104;8.074;2024-01-15T10:05:04;20.65;;;7.60;;
74707;SDS011;63360;50.104;8.074;2024-01-15T10:07:31;15.00;;;5.40;;
74707;SDS011;63360;50.104;8.074;2024-01-15T10:10:01;14.15;;;5.05;;
74707;SDS011;63360;50.104;8.074;2024-01-15T10:12:29;13.02;;;4.40;;
74707;SDS011;63360;50.104;8.074;2024-01-15T10:14:56;15.95;;;5.35;;
74707;SDS011;63360;50.104;8.074;2024-01-15T10:17:23;13.73;;;4.55;;
74707;SDS011;63360;50.104;8.074;2024-01-15T10:19:50;13.67;;;4.90;;
74707;SDS011;63360;50.104;8.074;2024-01-15T10:22:17;12.18;;;4.60;;
74707;SDS011;63360;50.104;8.074;2024-01-15T10:24:46;14.05;;;4.60;;
74707;SDS011;63360;50.104;8.074;2024-01-15T10:27:14;13.88;;;4.28;;
74707;SDS011;63360;50.104;8.074;2024-01-15T10:29:41;13.38;;;4.53;;
74707;SDS011;63360;50.104;8.074;2024-01-15T10:32:08;12.07;;;4.13;;
74707;SDS011;63360;50.104;8.074;2024-01-15T10:34:38;13.13;;;4.30;;
74707;SDS011;63360;50.104;8.074;2024-01-15T10:37:09;15.07;;;5.93;;
74707;SDS011;63360;50.104;8.074;2024-01-15T10:39:36;15.07;;;4.22;;
74707;SDS011;63360;50.104;8.074;2024-01-15T10:42:04;12.48;;;4.70;;
74707;SDS011;63360;50.104;8.074;2024-01-15T10:44:30;12.87;;;4.43;;
74707;SDS011;63360;50.104;8.074;2024-01-15T10:46:57;12.57;;;4.70;;
74707;SDS011;63360;50.104;8.074;2024-01-15T10:49:24;11.68;;;4.57;;
74707;SDS011;63360;50.104;8.074;2024-01-15T10:51:58;10.90;;;4.38;;
74707;SDS011;63360;50.104;8.074;2024-01-15T10:54:24;15.77;;;4.43;;
74707;SDS011;63360;50.104;8.074;2024-01-15T10:56:53;14.27;;;4.67;;
74707;SDS011;63360;50.104;8.074;2024-01-15T10:59:22;12.27;;;4.50;;
74707;SDS011;63360;50.104;8.074;2024-01-15T11:01:49;17.58;;;6.07;;
74707;SDS011;63360;50.104;8.074;2024-01-15T11:04:20;14.15;;;4.60;;
74707;SDS011;63360;50.104;8.074;2024-01-15T11:06:50;14.02;;;4.75;;
74707;SDS011;63360;50.104;8.074;2024-01-15T11:09:18;13.73;;;4.23;;
74707;SDS011;63360;50.104;8.074;2024-01-15T11:11:45;16.10;;;5.18;;
74707;SDS011;63360;50.104;8.074;2024-01-15T11:17:05;14.18;;;5.10;;
74707;SDS011;63360;50.104;8.074;2024-01-15T11:22:47;14.10;;;4.70;;
74707;SDS011;63360;50.104;8.074;2024-01-15T11:24:57;12.05;;;4.32;;
74707;SDS011;63360;50.104;8.074;2024-01-15T11:27:41;12.25;;;4.43;;
74707;SDS011;63360;50.104;8.074;2024-01-15T11:30:08;14.15;;;3.95;;
74707;SDS011;63360;50.104;8.074;2024-01-15T11:32:37;12.75;;;4.22;;
74707;SDS011;63360;50.104;8.074;2024-01-15T11:35:07;12.50;;;4.27;;
74707;SDS011;63360;50.104;8.074;2024-01-15T11:40:17;12.10;;;4.20;;
74707;SDS011;63360;50.104;8.074;2024-01-15T11:42:45;11.90;;;4.10;;
74707;SDS011;63360;50.104;8.074;2024-01-15T11:45:13;11.15;;;3.70;;
74707;SDS011;63360;50.104;8.074;2024-01-15T11:50:31;12.20;;;3.90;;
74707;SDS011;63360;50.104;8.074;2024-01-15T11:53:01;12.35;;;3.90;;
74707;SDS011;63360;50.104;8.074;2024-01-15T11:58:07;11.32;;;3.88;;
74707;SDS011;63360;50.104;8.074;2024-01-15T12:00:42;9.30;;;3.63;;
74707;SDS011;63360;50.104;8.074;2024-01-15T12:03:13;11.75;;;4.13;;
74707;SDS011;63360;50.104;8.074;2024-01-15T12:05:40;10.07;;;3.63;;
74707;SDS011;63360;50.104;8.074;2024-01-15T12:08:08;10.75;;;3.45;;
74707;SDS011;63360;50.104;8.074;2024-01-15T12:10:37;11.70;;;3.90;;
74707;SDS011;63360;50.104;8.074;2024-01-15T12:15:44;13.77;;;3.95;;
74707;SDS011;63360;50.104;8.074;2024-01-15T12:18:13;10.70;;;3.90;;
74707;SDS011;63360;50.104;8.074;2024-01-15T12:20:41;11.63;;;3.97;;
74707;SDS011;63360;50.104;8.074;2024-01-15T12:23:09;9.15;;;3.33;;
74707;SDS011;63360;50.104;8.074;2024-01-15T12:25:36;10.47;;;3.63;;
74707;SDS011;63360;50.104;8.074;2024-01-15T12:28:03;9.05;;;3.38;;
74707;SDS011;63360;50.104;8.074;2024-01-15T12:30:30;10.07;;;3.30;;
74707;SDS011;63360;50.104;8.074;2024-01-15T12:33:03;11.20;;;4.00;;
74707;SDS011;63360;50.104;8.074;2024-01-15T12:35:31;9.93;;;3.35;;
74707;SDS011;63360;50.104;8.074;2024-01-15T12:38:00;8.97;;;3.13;;
74707;SDS011;63360;50.104;8.074;2024-01-15T12:40:30;10.50;;;3.38;;
74707;SDS011;63360;50.104;8.074;2024-01-15T12:42:59;9.63;;;3.13;;
74707;SDS011;63360;50.104;8.074;2024-01-15T12:45:25;7.15;;;2.53;;
74707;SDS011;63360;50.104;8.074;2024-01-15T12:47:52;9.27;;;3.10;;
74707;SDS011;63360;50.104;8.074;2024-01-15T12:50:19;9.37;;;2.90;;
74707;SDS011;63360;50.104;8.074;2024-01-15T12:52:46;9.63;;;3.10;;
74707;SDS011;63360;50.104;8.074;2024-01-15T12:55:13;10.57;;;3.80;;
74707;SDS011;63360;50.104;8.074;2024-01-15T12:57:40;10.27;;;3.80;;
74707;SDS011;63360;50.104;8.074;2024-01-15T13:00:07;9.43;;;3.28;;
74707;SDS011;63360;50.104;8.074;2024-01-15T13:02:41;10.30;;;3.20;;
74707;SDS011;63360;50.104;8.074;2024-01-15T13:05:09;10.77;;;3.72;;
74707;SDS011;63360;50.104;8.074;2024-01-15T13:07:41;10.55;;;3.15;;
74707;SDS011;63360;50.104;8.074;2024-01-15T13:10:08;10.98;;;3.33;;
74707;SDS011;63360;50.104;8.074;2024-01-15T13:12:36;12.23;;;3.47;;
74707;SDS011;63360;50.104;8.074;2024-01-15T13:15:04;10.47;;;3.37;;
74707;SDS011;63360;50.104;8.074;2024-01-15T13:17:30;11.90;;;4.00;;
74707;SDS011;63360;50.104;8.074;2024-01-15T13:19:57;13.27;;;4.07;;
74707;SDS011;63360;50.104;8.074;2024-01-15T13:22:23;10.38;;;3.92;;
74707;SDS011;63360;50.104;8.074;2024-01-15T13:24:55;9.35;;;3.38;;
74707;SDS011;63360;50.104;8.074;2024-01-15T13:27:22;12.17;;;3.60;;
74707;SDS011;63360;50.104;8.074;2024-01-15T13:29:48;11.70;;;4.05;;
74707;SDS011;63360;50.104;8.074;2024-01-15T13:32:16;13.00;;;3.92;;
74707;SDS011;63360;50.104;8.074;2024-01-15T13:34:48;13.20;;;3.97;;
74707;SDS011;63360;50.104;8.074;2024-01-15T13:37:14;11.98;;;3.80;;
74707;SDS011;63360;50.104;8.074;2024-01-15T13:39:41;10.93;;;3.80;;
74707;SDS011;63360;50.104;8.074;2024-01-15T13:42:07;11.68;;;3.80;;
74707;SDS011;63360;50.104;8.074;2024-01-15T13:44:34;12.18;;;3.67;;
74707;SDS011;63360;50.104;8.074;2024-01-15T13:47:00;11.65;;;3.60;;
74707;SDS011;63360;50.104;8.074;2024-01-15T13:49:26;9.63;;;3.35;;
74707;SDS011;63360;50.104;8.074;2024-01-15T13:51:53;10.97;;;3.37;;
74707;SDS011;63360;50.104;8.074;2024-01-15T13:54:19;9.68;;;3.38;;
74707;SDS011;63360;50.104;8.074;2024-01-15T13:56:50;8.40;;;3.25;;
74707;SDS011;63360;50.104;8.074;2024-01-15T13:59:17;13.50;;;3.55;;
74707;SDS011;63360;50.104;8.074;2024-01-15T14:01:43;10.18;;;3.50;;
74707;SDS011;63360;50.104;8.074;2024-01-15T14:04:09;9.00;;;3.50;;
74707;SDS011;63360;50.104;8.074;2024-01-15T14:06:36;9.52;;;3.10;;
74707;SDS011;63360;50.104;8.074;2024-01-15T14:09:03;9.57;;;3.47;;
74707;SDS011;63360;50.104;8.074;2024-01-15T14:11:31;8.68;;;3.20;;
74707;SDS011;63360;50.104;8.074;2024-01-15T14:13:57;11.05;;;3.67;;
74707;SDS011;63360;50.104;8.074;2024-01-15T14:16:23;11.13;;;3.30;;
74707;SDS011;63360;50.104;8.074;2024-01-15T14:18:51;10.13;;;3.40;;
74707;SDS011;63360;50.104;8.074;2024-01-15T14:21:18;11.40;;;2.80;;
74707;SDS011;63360;50.104;8.074;2024-01-15T14:23:44;8.50;;;2.90;;
74707;SDS011;63360;50.104;8.074;2024-01-15T14:26:10;8.07;;;2.75;;
74707;SDS011;63360;50.104;8.074;2024-01-15T14:28:37;7.43;;;2.40;;
74707;SDS011;63360;50.104;8.074;2024-01-15T14:31:04;8.15;;;2.85;;
74707;SDS011;63360;50.104;8.074;2024-01-15T14:33:31;7.38;;;2.47;;
74707;SDS011;63360;50.104;8.074;2024-01-15T14:35:59;8.10;;;2.95;;
74707;SDS011;63360;50.104;8.074;2024-01-15T14:38:26;10.45;;;2.85;;
74707;SDS011;63360;50.104;8.074;2024-01-15T14:40:52;6.83;;;1.97;;
74707;SDS011;63360;50.104;8.074;2024-01-15T14:43:18;6.72;;;2.60;;
74707;SDS011;63360;50.104;8.074;2024-01-15T14:45:46;8.30;;;2.95;;
74707;SDS011;63360;50.104;8.074;2024-01-15T14:48:12;8.88;;;2.30;;
74707;SDS011;63360;50.104;8.074;2024-01-15T14:50:39;9.75;;;2.65;;
74707;SDS011;63360;50.104;8.074;2024-01-15T14:53:06;7.73;;;2.40;;